sensor_id;sensor_type;location;lat;lon;timestamp;P1;durP1;ratioP1;P2;durP2;ratioP2
21860;SDS011;11095;48.066;8.540;2022-10-20T00:01:27;18.90;;;12.43;;
21860;SDS011;11095;48.066;8.540;2022-10-20T00:03:54;17.83;;;12.45;;
21860;SDS011;11095;48.066;8.540;2022-10-20T00:06:22;18.55;;;12.55;;
21860;SDS011;11095;48.066;8.540;2022-10-20T00:08:53;16.52;;;11.75;;
21860;SDS011;11095;48.066;8.540;2022-10-20T00:11:20;16.85;;;11.57;;
21860;SDS011;11095;48.066;8.540;2022-10-20T00:13:48;16.23;;;11.73;;
21860;SDS011;11095;48.066;8.540;2022-10-20T00:16:15;16.23;;;11.75;;
21860;SDS011;11095;48.066;8.540;2022-10-20T00:18:42;17.42;;;12.65;;
21860;SDS011;11095;48.066;8.540;2022-10-20T00:21:10;19.80;;;13.93;;
21860;SDS011;11095;48.066;8.540;2022-10-20T00:23:38;20.20;;;15.00;;
21860;SDS011;11095;48.066;8.540;2022-10-20T00:26:05;27.85;;;16.33;;
21860;SDS011;11095;48.066;8.540;2022-10-20T00:28:39;20.20;;;14.48;;
21860;SDS011;11095;48.066;8.540;2022-10-20T00:31:05;19.70;;;14.13;;
21860;SDS011;11095;48.066;8.540;2022-10-20T00:33:31;22.45;;;14.60;;
21860;SDS011;11095;48.066;8.540;2022-10-20T00:35:58;20.05;;;14.25;;
21860;SDS011;11095;48.066;8.540;2022-10-20T00:38:24;19.92;;;13.80;;
21860;SDS011;11095;48.066;8.540;2022-10-20T00:40:50;20.92;;;14.40;;
21860;SDS011;11095;48.066;8.540;2022-10-20T00:43:16;21.50;;;15.10;;
21860;SDS011;11095;48.066;8.540;2022-10-20T00:45:43;23.20;;;15.20;;
21860;SDS011;11095;48.066;8.540;2022-10-20T00:48:18;19.73;;;14.20;;
21860;SDS011;11095;48.066;8.540;2022-10-20T00:50:48;19.15;;;12.93;;
21860;SDS011;11095;48.066;8.540;2022-10-20T00:53:18;20.45;;;14.35;;
21860;SDS011;11095;48.066;8.540;2022-10-20T00:55:47;19.15;;;14.13;;
21860;SDS011;11095;48.066;8.540;2022-10-20T00:58:15;20.92;;;14.07;;
21860;SDS011;11095;48.066;8.540;2022-10-20T01:00:41;19.27;;;13.90;;
21860;SDS011;11095;48.066;8.540;2022-10-20T01:03:10;19.02;;;13.75;;
21860;SDS011;11095;48.066;8.540;2022-10-20T01:05:44;20.42;;;14.82;;
21860;SDS011;11095;48.066;8.540;2022-10-20T01:08:10;21.83;;;14.98;;
21860;SDS011;11095;48.066;8.540;2022-10-20T01:10:40;18.45;;;13.45;;
21860;SDS011;11095;48.066;8.540;2022-10-20T01:13:14;21.02;;;14.38;;
21860;SDS011;11095;48.066;8.540;2022-10-20T01:15:58;21.67;;;14.65;;
21860;SDS011;11095;48.066;8.540;2022-10-20T01:18:44;21.60;;;15.60;;
21860;SDS011;11095;48.066;8.540;2022-10-20T01:21:24;22.02;;;14.80;;
21860;SDS011;11095;48.066;8.540;2022-10-20T01:32:42;23.52;;;16.55;;
21860;SDS011;11095;48.066;8.540;2022-10-20T01:43:26;28.42;;;17.67;;
21860;SDS011;11095;48.066;8.540;2022-10-20T01:45:54;24.63;;;16.55;;
21860;SDS011;11095;48.066;8.540;2022-10-20T01:48:22;23.95;;;17.50;;
21860;SDS011;11095;48.066;8.540;2022-10-20T01:50:52;26.52;;;17.85;;
21860;SDS011;11095;48.066;8.540;2022-10-20T01:53:18;27.92;;;18.15;;
21860;SDS011;11095;48.066;8.540;2022-10-20T01:55:44;26.90;;;17.98;;
21860;SDS011;11095;48.066;8.540;2022-10-20T02:00:55;25.40;;;17.45;;
21860;SDS011;11095;48.066;8.540;2022-10-20T02:03:50;25.52;;;17.25;;
21860;SDS011;11095;48.066;8.540;2022-10-20T02:09:00;24.10;;;17.35;;
21860;SDS011;11095;48.066;8.540;2022-10-20T02:13:55;22.05;;;15.57;;
21860;SDS011;11095;48.066;8.540;2022-10-20T02:16:31;26.90;;;17.50;;
21860;SDS011;11095;48.066;8.540;2022-10-20T02:19:00;25.20;;;17.08;;
21860;SDS011;11095;48.066;8.540;2022-10-20T02:21:27;26.77;;;18.30;;
21860;SDS011;11095;48.066;8.540;2022-10-20T02:23:53;24.02;;;16.52;;
21860;SDS011;11095;48.066;8.540;2022-10-20T02:26:21;24.98;;;16.02;;
21860;SDS011;11095;48.066;8.540;2022-10-20T02:28:51;28.63;;;19.17;;
21860;SDS011;11095;48.066;8.540;2022-10-20T02:31:20;29.75;;;19.95;;
21860;SDS011;11095;48.066;8.540;2022-10-20T02:33:46;28.85;;;18.65;;
21860;SDS011;11095;48.066;8.540;2022-10-20T02:36:15;32.20;;;20.70;;
21860;SDS011;11095;48.066;8.540;2022-10-20T02:38:43;27.15;;;18.08;;
21860;SDS011;11095;48.066;8.540;2022-10-20T02:41:08;28.48;;;18.92;;
21860;SDS011;11095;48.066;8.540;2022-10-20T02:43:34;34.50;;;21.23;;
21860;SDS011;11095;48.066;8.540;2022-10-20T02:46:00;30.27;;;20.05;;
21860;SDS011;11095;48.066;8.540;2022-10-20T02:48:25;31.65;;;20.02;;
21860;SDS011;11095;48.066;8.540;2022-10-20T02:50:51;30.23;;;19.83;;
21860;SDS011;11095;48.066;8.540;2022-10-20T02:53:17;34.25;;;20.67;;
21860;SDS011;11095;48.066;8.540;2022-10-20T02:55:43;33.72;;;21.00;;
21860;SDS011;11095;48.066;8.540;2022-10-20T02:58:08;34.55;;;21.75;;
21860;SDS011;11095;48.066;8.540;2022-10-20T03:00:34;29.30;;;19.65;;
21860;SDS011;11095;48.066;8.540;2022-10-20T03:03:00;32.42;;;20.80;;
21860;SDS011;11095;48.066;8.540;2022-10-20T03:05:26;34.38;;;20.85;;
21860;SDS011;11095;48.066;8.540;2022-10-20T03:07:53;31.50;;;20.17;;
21860;SDS011;11095;48.066;8.540;2022-10-20T03:10:18;33.17;;;21.02;;
21860;SDS011;11095;48.066;8.540;2022-10-20T03:12:44;32.30;;;20.80;;
21860;SDS011;11095;48.066;8.540;2022-10-20T03:15:10;29.73;;;19.15;;
21860;SDS011;11095;48.066;8.540;2022-10-20T03:17:36;32.67;;;20.15;;
21860;SDS011;11095;48.066;8.540;2022-10-20T03:20:02;36.90;;;21.60;;
21860;SDS011;11095;48.066;8.540;2022-10-20T03:22:29;30.52;;;20.50;;
21860;SDS011;11095;48.066;8.540;2022-10-20T03:24:54;30.27;;;19.80;;
21860;SDS011;11095;48.066;8.540;2022-10-20T03:27:20;37.63;;;22.90;;
21860;SDS011;11095;48.066;8.540;2022-10-20T03:29:46;35.85;;;22.40;;
21860;SDS011;11095;48.066;8.540;2022-10-20T03:32:11;35.17;;;21.98;;
21860;SDS011;11095;48.066;8.540;2022-10-20T03:34:37;32.40;;;20.23;;
21860;SDS011;11095;48.066;8.540;2022-10-20T03:37:03;32.25;;;21.50;;
21860;SDS011;11095;48.066;8.540;2022-10-20T03:39:28;35.60;;;22.38;;
21860;SDS011;11095;48.066;8.540;2022-10-20T03:41:54;31.27;;;20.45;;
21860;SDS011;11095;48.066;8.540;2022-10-20T03:44:21;33.67;;;21.13;;
21860;SDS011;11095;48.066;8.540;2022-10-20T03:46:47;34.58;;;22.50;;
21860;SDS011;11095;48.066;8.540;2022-10-20T03:49:13;31.30;;;21.30;;
21860;SDS011;11095;48.066;8.540;2022-10-20T03:51:38;31.02;;;20.45;;
21860;SDS011;11095;48.066;8.540;2022-10-20T03:54:04;31.55;;;21.33;;
21860;SDS011;11095;48.066;8.540;2022-10-20T03:56:30;34.47;;;21.85;;
21860;SDS011;11095;48.066;8.540;2022-10-20T03:58:55;35.50;;;22.30;;
21860;SDS011;11095;48.066;8.540;2022-10-20T04:01:22;31.08;;;20.75;;
21860;SDS011;11095;48.066;8.540;2022-10-20T04:03:52;34.00;;;21.15;;
21860;SDS011;11095;48.066;8.540;2022-10-20T04:06:18;31.77;;;20.52;;
21860;SDS011;11095;48.066;8.540;2022-10-20T04:08:43;32.90;;;21.00;;
21860;SDS011;11095;48.066;8.540;2022-10-20T04:11:09;31.15;;;21.00;;
21860;SDS011;11095;48.066;8.540;2022-10-20T04:13:35;35.13;;;21.80;;
21860;SDS011;11095;48.066;8.540;2022-10-20T04:16:00;30.38;;;20.35;;
21860;SDS011;11095;48.066;8.540;2022-10-20T04:18:26;32.97;;;20.77;;
21860;SDS011;11095;48.066;8.540;2022-10-20T04:20:52;29.58;;;19.73;;
21860;SDS011;11095;48.066;8.540;2022-10-20T04:23:17;33.05;;;21.40;;
21860;SDS011;11095;48.066;8.540;2022-10-20T04:25:43;30.27;;;20.52;;
21860;SDS011;11095;48.066;8.540;2022-10-20T04:28:12;35.05;;;22.20;;
21860;SDS011;11095;48.066;8.540;2022-10-20T04:30:39;30.50;;;20.83;;
21860;SDS011;11095;48.066;8.540;2022-10-20T04:33:05;28.52;;;20.08;;
21860;SDS011;11095;48.066;8.540;2022-10-20T04:35:31;32.70;;;21.38;;
21860;SDS011;11095;48.066;8.540;2022-10-20T04:37:57;32.50;;;20.95;;
21860;SDS011;11095;48.066;8.540;2022-10-20T04:40:23;31.83;;;20.77;;
21860;SDS011;11095;48.066;8.540;2022-10-20T04:42:48;33.50;;;20.58;;
21860;SDS011;11095;48.066;8.540;2022-10-20T04:45:14;29.77;;;20.45;;
21860;SDS011;11095;48.066;8.540;2022-10-20T04:47:40;30.73;;;20.77;;
21860;SDS011;11095;48.066;8.540;2022-10-20T04:50:06;29.45;;;19.25;;
21860;SDS011;11095;48.066;8.540;2022-10-20T04:52:32;30.75;;;20.33;;
21860;SDS011;11095;48.066;8.540;2022-10-20T04:54:58;33.40;;;21.45;;
21860;SDS011;11095;48.066;8.540;2022-10-20T04:57:24;33.00;;;20.45;;
21860;SDS011;11095;48.066;8.540;2022-10-20T04:59:50;33.47;;;20.80;;
21860;SDS011;11095;48.066;8.540;2022-10-20T05:02:15;31.60;;;20.92;;
21860;SDS011;11095;48.066;8.540;2022-10-20T05:04:42;34.75;;;23.05;;
21860;SDS011;11095;48.066;8.540;2022-10-20T05:07:07;34.05;;;22.33;;
21860;SDS011;11095;48.066;8.540;2022-10-20T05:09:33;35.45;;;21.80;;
21860;SDS011;11095;48.066;8.540;2022-10-20T05:11:59;34.25;;;21.45;;
21860;SDS011;11095;48.066;8.540;2022-10-20T05:14:24;29.80;;;20.10;;
21860;SDS011;11095;48.066;8.540;2022-10-20T05:16:50;32.15;;;21.85;;
21860;SDS011;11095;48.066;8.540;2022-10-20T05:19:16;32.10;;;20.85;;
21860;SDS011;11095;48.066;8.540;2022-10-20T05:21:42;28.98;;;20.15;;
21860;SDS011;11095;48.066;8.540;2022-10-20T05:24:10;27.92;;;19.27;;
21860;SDS011;11095;48.066;8.540;2022-10-20T05:26:37;32.13;;;21.23;;
21860;SDS011;11095;48.066;8.540;2022-10-20T05:29:04;31.85;;;20.92;;
21860;SDS011;11095;48.066;8.540;2022-10-20T05:31:34;33.60;;;21.77;;
21860;SDS011;11095;48.066;8.540;2022-10-20T05:34:04;32.20;;;20.52;;
21860;SDS011;11095;48.066;8.540;2022-10-20T05:36:30;30.13;;;19.48;;
21860;SDS011;11095;48.066;8.540;2022-10-20T05:38:56;33.00;;;21.13;;
21860;SDS011;11095;48.066;8.540;2022-10-20T05:41:23;32.50;;;21.48;;
21860;SDS011;11095;48.066;8.540;2022-10-20T05:43:51;32.30;;;21.05;;
21860;SDS011;11095;48.066;8.540;2022-10-20T05:46:18;28.38;;;19.73;;
21860;SDS011;11095;48.066;8.540;2022-10-20T05:48:44;35.45;;;22.33;;
21860;SDS011;11095;48.066;8.540;2022-10-20T05:53:44;30.75;;;21.13;;
21860;SDS011;11095;48.066;8.540;2022-10-20T05:56:12;33.72;;;21.40;;
21860;SDS011;11095;48.066;8.540;2022-10-20T05:58:42;30.08;;;21.02;;
21860;SDS011;11095;48.066;8.540;2022-10-20T06:01:10;30.77;;;19.65;;
21860;SDS011;11095;48.066;8.540;2022-10-20T06:03:48;30.60;;;19.23;;
21860;SDS011;11095;48.066;8.540;2022-10-20T06:06:14;35.22;;;22.15;;
21860;SDS011;11095;48.066;8.540;2022-10-20T06:08:41;32.80;;;21.58;;
21860;SDS011;11095;48.066;8.540;2022-10-20T06:11:07;33.17;;;22.52;;
21860;SDS011;11095;48.066;8.540;2022-10-20T06:13:34;32.53;;;20.65;;
21860;SDS011;11095;48.066;8.540;2022-10-20T06:16:01;33.20;;;21.73;;
21860;SDS011;11095;48.066;8.540;2022-10-20T06:18:28;35.15;;;23.02;;
21860;SDS011;11095;48.066;8.540;2022-10-20T06:20:58;32.10;;;21.63;;
21860;SDS011;11095;48.066;8.540;2022-10-20T06:23:24;33.28;;;21.73;;
21860;SDS011;11095;48.066;8.540;2022-10-20T06:25:50;34.53;;;22.13;;
21860;SDS011;11095;48.066;8.540;2022-10-20T06:28:16;33.80;;;21.40;;
21860;SDS011;11095;48.066;8.540;2022-10-20T06:30:41;32.63;;;21.50;;
21860;SDS011;11095;48.066;8.540;2022-10-20T06:33:07;33.78;;;21.88;;
21860;SDS011;11095;48.066;8.540;2022-10-20T06:35:36;36.85;;;22.25;;
21860;SDS011;11095;48.066;8.540;2022-10-20T06:38:02;31.35;;;21.02;;
21860;SDS011;11095;48.066;8.540;2022-10-20T06:40:28;33.10;;;20.23;;
21860;SDS011;11095;48.066;8.540;2022-10-20T06:42:53;29.92;;;20.48;;
21860;SDS011;11095;48.066;8.540;2022-10-20T06:45:19;30.65;;;20.58;;
21860;SDS011;11095;48.066;8.540;2022-10-20T06:47:45;31.33;;;21.17;;
21860;SDS011;11095;48.066;8.540;2022-10-20T06:50:10;31.50;;;19.95;;
21860;SDS011;11095;48.066;8.540;2022-10-20T06:52:36;30.25;;;20.13;;
21860;SDS011;11095;48.066;8.540;2022-10-20T06:55:01;33.92;;;21.52;;
21860;SDS011;11095;48.066;8.540;2022-10-20T06:57:29;32.88;;;22.00;;
21860;SDS011;11095;48.066;8.540;2022-10-20T06:59:56;32.55;;;20.92;;
21860;SDS011;11095;48.066;8.540;2022-10-20T07:02:21;29.73;;;20.45;;
21860;SDS011;11095;48.066;8.540;2022-10-20T07:04:50;29.40;;;20.52;;
21860;SDS011;11095;48.066;8.540;2022-10-20T07:07:15;28.50;;;19.58;;
21860;SDS011;11095;48.066;8.540;2022-10-20T07:09:41;27.73;;;19.85;;
21860;SDS011;11095;48.066;8.540;2022-10-20T07:12:07;29.42;;;19.48;;
21860;SDS011;11095;48.066;8.540;2022-10-20T07:14:32;25.98;;;18.58;;
21860;SDS011;11095;48.066;8.540;2022-10-20T07:17:01;27.45;;;18.48;;
21860;SDS011;11095;48.066;8.540;2022-10-20T07:19:27;29.65;;;18.95;;
21860;SDS011;11095;48.066;8.540;2022-10-20T07:21:54;29.17;;;19.75;;
21860;SDS011;11095;48.066;8.540;2022-10-20T07:24:19;28.25;;;19.15;;
21860;SDS011;11095;48.066;8.540;2022-10-20T07:26:45;25.50;;;18.42;;
21860;SDS011;11095;48.066;8.540;2022-10-20T07:29:11;25.77;;;17.80;;
21860;SDS011;11095;48.066;8.540;2022-10-20T07:31:39;23.98;;;17.17;;
21860;SDS011;11095;48.066;8.540;2022-10-20T07:34:10;22.70;;;16.45;;
21860;SDS011;11095;48.066;8.540;2022-10-20T07:36:36;30.15;;;19.20;;
21860;SDS011;11095;48.066;8.540;2022-10-20T07:39:05;27.27;;;18.70;;
21860;SDS011;11095;48.066;8.540;2022-10-20T07:41:32;23.75;;;16.42;;
21860;SDS011;11095;48.066;8.540;2022-10-20T07:43:58;22.35;;;16.60;;
21860;SDS011;11095;48.066;8.540;2022-10-20T07:46:24;25.48;;;17.85;;
21860;SDS011;11095;48.066;8.540;2022-10-20T07:48:50;23.77;;;16.60;;
21860;SDS011;11095;48.066;8.540;2022-10-20T07:53:49;24.35;;;16.20;;
21860;SDS011;11095;48.066;8.540;2022-10-20T07:56:16;23.10;;;17.10;;
21860;SDS011;11095;48.066;8.540;2022-10-20T07:58:42;22.40;;;15.70;;
21860;SDS011;11095;48.066;8.540;2022-10-20T08:01:08;26.73;;;17.35;;
21860;SDS011;11095;48.066;8.540;2022-10-20T08:03:34;25.73;;;16.73;;
21860;SDS011;11095;48.066;8.540;2022-10-20T08:06:00;23.63;;;16.98;;
21860;SDS011;11095;48.066;8.540;2022-10-20T08:08:26;22.23;;;16.42;;
21860;SDS011;11095;48.066;8.540;2022-10-20T08:10:52;23.30;;;15.85;;
21860;SDS011;11095;48.066;8.540;2022-10-20T08:13:18;22.73;;;16.00;;
21860;SDS011;11095;48.066;8.540;2022-10-20T08:15:44;24.45;;;16.65;;
21860;SDS011;11095;48.066;8.540;2022-10-20T08:18:10;21.75;;;15.65;;
21860;SDS011;11095;48.066;8.540;2022-10-20T08:20:35;22.05;;;15.30;;
21860;SDS011;11095;48.066;8.540;2022-10-20T08:23:01;20.55;;;15.18;;
21860;SDS011;11095;48.066;8.540;2022-10-20T08:25:27;19.13;;;13.77;;
21860;SDS011;11095;48.066;8.540;2022-10-20T08:27:53;17.60;;;12.93;;
21860;SDS011;11095;48.066;8.540;2022-10-20T08:30:18;15.35;;;12.65;;
21860;SDS011;11095;48.066;8.540;2022-10-20T08:32:44;17.92;;;13.52;;
21860;SDS011;11095;48.066;8.540;2022-10-20T08:35:10;15.45;;;11.65;;
21860;SDS011;11095;48.066;8.540;2022-10-20T08:37:35;15.25;;;12.10;;
21860;SDS011;11095;48.066;8.540;2022-10-20T08:40:04;16.98;;;12.55;;
21860;SDS011;11095;48.066;8.540;2022-10-20T08:42:35;14.80;;;12.10;;
21860;SDS011;11095;48.066;8.540;2022-10-20T08:45:06;14.35;;;11.60;;
21860;SDS011;11095;48.066;8.540;2022-10-20T08:47:38;15.43;;;10.88;;
21860;SDS011;11095;48.066;8.540;2022-10-20T08:50:04;15.93;;;11.43;;
21860;SDS011;11095;48.066;8.540;2022-10-20T08:52:34;17.17;;;10.63;;
21860;SDS011;11095;48.066;8.540;2022-10-20T08:55:00;14.45;;;11.50;;
21860;SDS011;11095;48.066;8.540;2022-10-20T08:57:29;15.32;;;10.60;;
21860;SDS011;11095;48.066;8.540;2022-10-20T09:00:16;17.42;;;11.50;;
21860;SDS011;11095;48.066;8.540;2022-10-20T09:02:45;18.73;;;11.65;;
21860;SDS011;11095;48.066;8.540;2022-10-20T09:05:12;16.27;;;11.23;;
21860;SDS011;11095;48.066;8.540;2022-10-20T09:07:39;19.30;;;12.02;;
21860;SDS011;11095;48.066;8.540;2022-10-20T09:12:40;15.82;;;11.60;;
21860;SDS011;11095;48.066;8.540;2022-10-20T09:15:09;16.38;;;11.43;;
21860;SDS011;11095;48.066;8.540;2022-10-20T09:17:50;16.02;;;11.63;;
21860;SDS011;11095;48.066;8.540;2022-10-20T09:23:15;15.07;;;11.18;;
21860;SDS011;11095;48.066;8.540;2022-10-20T09:25:44;14.25;;;11.32;;
21860;SDS011;11095;48.066;8.540;2022-10-20T09:28:15;13.70;;;10.88;;
21860;SDS011;11095;48.066;8.540;2022-10-20T09:30:47;15.55;;;11.70;;
21860;SDS011;11095;48.066;8.540;2022-10-20T09:33:29;17.42;;;10.93;;
21860;SDS011;11095;48.066;8.540;2022-10-20T09:36:02;14.10;;;10.40;;
21860;SDS011;11095;48.066;8.540;2022-10-20T09:38:34;16.85;;;11.75;;
21860;SDS011;11095;48.066;8.540;2022-10-20T09:44:01;14.93;;;10.65;;
21860;SDS011;11095;48.066;8.540;2022-10-20T09:51:54;16.92;;;11.50;;
21860;SDS011;11095;48.066;8.540;2022-10-20T09:54:22;17.48;;;12.27;;
21860;SDS011;11095;48.066;8.540;2022-10-20T09:56:49;16.17;;;12.48;;
21860;SDS011;11095;48.066;8.540;2022-10-20T09:59:18;18.67;;;13.00;;
21860;SDS011;11095;48.066;8.540;2022-10-20T10:01:58;16.90;;;12.18;;
21860;SDS011;11095;48.066;8.540;2022-10-20T10:04:35;15.30;;;11.85;;
21860;SDS011;11095;48.066;8.540;2022-10-20T10:07:03;20.55;;;12.77;;
21860;SDS011;11095;48.066;8.540;2022-10-20T10:09:31;15.40;;;11.43;;
21860;SDS011;11095;48.066;8.540;2022-10-20T10:12:13;17.90;;;12.57;;
21860;SDS011;11095;48.066;8.540;2022-10-20T10:15:22;17.52;;;12.23;;
21860;SDS011;11095;48.066;8.540;2022-10-20T10:17:49;17.20;;;11.70;;
21860;SDS011;11095;48.066;8.540;2022-10-20T10:22:41;16.88;;;11.52;;
21860;SDS011;11095;48.066;8.540;2022-10-20T10:25:15;17.75;;;11.52;;
21860;SDS011;11095;48.066;8.540;2022-10-20T10:32:53;15.02;;;11.02;;
21860;SDS011;11095;48.066;8.540;2022-10-20T10:35:38;21.15;;;13.05;;
21860;SDS011;11095;48.066;8.540;2022-10-20T10:38:08;17.35;;;11.85;;
21860;SDS011;11095;48.066;8.540;2022-10-20T10:40:35;19.48;;;12.27;;
21860;SDS011;11095;48.066;8.540;2022-10-20T10:43:13;17.35;;;11.75;;
21860;SDS011;11095;48.066;8.540;2022-10-20T10:45:56;18.02;;;11.77;;
21860;SDS011;11095;48.066;8.540;2022-10-20T10:56:47;15.52;;;11.38;;
21860;SDS011;11095;48.066;8.540;2022-10-20T11:05:28;15.93;;;10.82;;
21860;SDS011;11095;48.066;8.540;2022-10-20T11:13:42;19.73;;;12.00;;
21860;SDS011;11095;48.066;8.540;2022-10-20T11:19:32;15.70;;;10.98;;
21860;SDS011;11095;48.066;8.540;2022-10-20T11:22:22;16.27;;;10.82;;
21860;SDS011;11095;48.066;8.540;2022-10-20T11:27:43;14.20;;;10.88;;
21860;SDS011;11095;48.066;8.540;2022-10-20T11:30:18;16.85;;;12.52;;
21860;SDS011;11095;48.066;8.540;2022-10-20T11:32:53;17.00;;;11.43;;
21860;SDS011;11095;48.066;8.540;2022-10-20T11:38:43;12.45;;;10.27;;
21860;SDS011;11095;48.066;8.540;2022-10-20T11:41:14;13.00;;;10.18;;
21860;SDS011;11095;48.066;8.540;2022-10-20T11:43:54;11.30;;;8.80;;
21860;SDS011;11095;48.066;8.540;2022-10-20T11:46:39;14.05;;;9.93;;
21860;SDS011;11095;48.066;8.540;2022-10-20T12:00:18;16.23;;;11.73;;
21860;SDS011;11095;48.066;8.540;2022-10-20T12:05:40;19.05;;;12.90;;
21860;SDS011;11095;48.066;8.540;2022-10-20T12:08:20;17.38;;;12.68;;
21860;SDS011;11095;48.066;8.540;2022-10-20T12:11:22;14.90;;;11.52;;
21860;SDS011;11095;48.066;8.540;2022-10-20T12:22:01;17.05;;;12.85;;
21860;SDS011;11095;48.066;8.540;2022-10-20T12:29:45;18.38;;;13.30;;
21860;SDS011;11095;48.066;8.540;2022-10-20T12:37:54;18.77;;;13.57;;
21860;SDS011;11095;48.066;8.540;2022-10-20T12:43:24;23.85;;;13.73;;
21860;SDS011;11095;48.066;8.540;2022-10-20T12:45:55;17.53;;;12.93;;
21860;SDS011;11095;48.066;8.540;2022-10-20T12:48:23;18.15;;;12.70;;
21860;SDS011;11095;48.066;8.540;2022-10-20T12:50:50;18.58;;;13.07;;
21860;SDS011;11095;48.066;8.540;2022-10-20T12:55:47;20.08;;;13.60;;
21860;SDS011;11095;48.066;8.540;2022-10-20T13:19:27;18.95;;;14.15;;
21860;SDS011;11095;48.066;8.540;2022-10-20T13:21:59;18.83;;;14.10;;
21860;SDS011;11095;48.066;8.540;2022-10-20T13:24:57;19.38;;;13.07;;
21860;SDS011;11095;48.066;8.540;2022-10-20T13:27:23;22.58;;;15.30;;
21860;SDS011;11095;48.066;8.540;2022-10-20T13:29:49;21.08;;;15.02;;
21860;SDS011;11095;48.066;8.540;2022-10-20T13:34:48;28.13;;;17.17;;
21860;SDS011;11095;48.066;8.540;2022-10-20T13:40:16;29.58;;;17.60;;
21860;SDS011;11095;48.066;8.540;2022-10-20T13:48:45;19.27;;;14.55;;
21860;SDS011;11095;48.066;8.540;2022-10-20T13:51:20;25.38;;;16.73;;
21860;SDS011;11095;48.066;8.540;2022-10-20T13:53:50;22.15;;;15.77;;
21860;SDS011;11095;48.066;8.540;2022-10-20T13:58:58;21.33;;;14.27;;
21860;SDS011;11095;48.066;8.540;2022-10-20T14:01:27;17.30;;;13.70;;
21860;SDS011;11095;48.066;8.540;2022-10-20T14:03:55;22.30;;;16.15;;
21860;SDS011;11095;48.066;8.540;2022-10-20T14:06:36;17.83;;;13.23;;
21860;SDS011;11095;48.066;8.540;2022-10-20T14:09:10;25.92;;;16.88;;
21860;SDS011;11095;48.066;8.540;2022-10-20T14:11:40;20.20;;;14.27;;
21860;SDS011;11095;48.066;8.540;2022-10-20T14:14:11;16.15;;;12.40;;
21860;SDS011;11095;48.066;8.540;2022-10-20T14:19:12;17.55;;;11.05;;
21860;SDS011;11095;48.066;8.540;2022-10-20T14:21:45;16.35;;;12.35;;
21860;SDS011;11095;48.066;8.540;2022-10-20T14:24:17;20.88;;;13.98;;
21860;SDS011;11095;48.066;8.540;2022-10-20T14:26:58;24.80;;;15.13;;
21860;SDS011;11095;48.066;8.540;2022-10-20T14:29:33;19.38;;;14.73;;
21860;SDS011;11095;48.066;8.540;2022-10-20T14:32:03;22.88;;;15.57;;
21860;SDS011;11095;48.066;8.540;2022-10-20T14:34:32;25.60;;;17.67;;
21860;SDS011;11095;48.066;8.540;2022-10-20T14:36:59;19.42;;;14.18;;
21860;SDS011;11095;48.066;8.540;2022-10-20T14:39:36;23.67;;;16.30;;
21860;SDS011;11095;48.066;8.540;2022-10-20T14:42:04;24.30;;;17.35;;
21860;SDS011;11095;48.066;8.540;2022-10-20T14:44:49;22.10;;;15.02;;
21860;SDS011;11095;48.066;8.540;2022-10-20T14:47:16;22.08;;;16.25;;
21860;SDS011;11095;48.066;8.540;2022-10-20T14:49:47;24.20;;;17.27;;
21860;SDS011;11095;48.066;8.540;2022-10-20T14:54:46;19.33;;;13.70;;
21860;SDS011;11095;48.066;8.540;2022-10-20T15:02:38;20.17;;;14.55;;
21860;SDS011;11095;48.066;8.540;2022-10-20T15:05:21;24.90;;;16.95;;
21860;SDS011;11095;48.066;8.540;2022-10-20T15:07:48;22.75;;;16.38;;
21860;SDS011;11095;48.066;8.540;2022-10-20T15:10:15;21.90;;;15.85;;
21860;SDS011;11095;48.066;8.540;2022-10-20T15:12:45;22.10;;;14.80;;
21860;SDS011;11095;48.066;8.540;2022-10-20T15:15:34;24.08;;;15.88;;
21860;SDS011;11095;48.066;8.540;2022-10-20T15:28:32;29.60;;;18.83;;
21860;SDS011;11095;48.066;8.540;2022-10-20T15:31:05;20.10;;;15.60;;
21860;SDS011;11095;48.066;8.540;2022-10-20T15:33:38;23.40;;;16.13;;
21860;SDS011;11095;48.066;8.540;2022-10-20T15:36:09;23.80;;;16.40;;
21860;SDS011;11095;48.066;8.540;2022-10-20T15:38:41;21.08;;;15.63;;
21860;SDS011;11095;48.066;8.540;2022-10-20T15:41:10;24.98;;;16.48;;
21860;SDS011;11095;48.066;8.540;2022-10-20T15:44:16;19.48;;;13.60;;
21860;SDS011;11095;48.066;8.540;2022-10-20T15:46:45;25.02;;;16.85;;
21860;SDS011;11095;48.066;8.540;2022-10-20T15:49:12;21.23;;;15.35;;
21860;SDS011;11095;48.066;8.540;2022-10-20T15:51:42;18.08;;;14.27;;
21860;SDS011;11095;48.066;8.540;2022-10-20T15:54:10;28.23;;;17.55;;
21860;SDS011;11095;48.066;8.540;2022-10-20T15:56:38;21.17;;;14.98;;
21860;SDS011;11095;48.066;8.540;2022-10-20T15:59:04;22.27;;;16.48;;
21860;SDS011;11095;48.066;8.540;2022-10-20T16:01:30;28.52;;;18.70;;
21860;SDS011;11095;48.066;8.540;2022-10-20T16:03:56;32.42;;;19.75;;
21860;SDS011;11095;48.066;8.540;2022-10-20T16:06:22;20.38;;;15.35;;
21860;SDS011;11095;48.066;8.540;2022-10-20T16:08:48;32.03;;;20.10;;
21860;SDS011;11095;48.066;8.540;2022-10-20T16:11:16;26.75;;;18.98;;
21860;SDS011;11095;48.066;8.540;2022-10-20T16:13:43;24.98;;;16.58;;
21860;SDS011;11095;48.066;8.540;2022-10-20T16:16:13;25.40;;;18.02;;
21860;SDS011;11095;48.066;8.540;2022-10-20T16:18:41;23.92;;;16.60;;
21860;SDS011;11095;48.066;8.540;2022-10-20T16:21:07;27.05;;;18.75;;
21860;SDS011;11095;48.066;8.540;2022-10-20T16:23:33;28.42;;;18.70;;
21860;SDS011;11095;48.066;8.540;2022-10-20T16:26:03;22.83;;;16.02;;
21860;SDS011;11095;48.066;8.540;2022-10-20T16:28:33;25.02;;;16.77;;
21860;SDS011;11095;48.066;8.540;2022-10-20T16:31:03;21.05;;;15.73;;
21860;SDS011;11095;48.066;8.540;2022-10-20T16:33:32;20.58;;;14.85;;
21860;SDS011;11095;48.066;8.540;2022-10-20T16:36:00;19.83;;;14.13;;
21860;SDS011;11095;48.066;8.540;2022-10-20T16:38:27;24.85;;;16.88;;
21860;SDS011;11095;48.066;8.540;2022-10-20T16:40:59;23.77;;;16.88;;
21860;SDS011;11095;48.066;8.540;2022-10-20T16:43:26;26.33;;;16.95;;
21860;SDS011;11095;48.066;8.540;2022-10-20T16:45:52;23.85;;;16.95;;
21860;SDS011;11095;48.066;8.540;2022-10-20T16:48:19;24.15;;;15.88;;
21860;SDS011;11095;48.066;8.540;2022-10-20T16:50:44;24.85;;;18.05;;
21860;SDS011;11095;48.066;8.540;2022-10-20T16:53:10;25.17;;;16.98;;
21860;SDS011;11095;48.066;8.540;2022-10-20T16:55:36;27.90;;;18.85;;
21860;SDS011;11095;48.066;8.540;2022-10-20T16:58:01;28.33;;;19.70;;
21860;SDS011;11095;48.066;8.540;2022-10-20T17:00:27;27.48;;;18.70;;
21860;SDS011;11095;48.066;8.540;2022-10-20T17:02:53;26.35;;;18.08;;
21860;SDS011;11095;48.066;8.540;2022-10-20T17:05:21;27.10;;;18.08;;
21860;SDS011;11095;48.066;8.540;2022-10-20T17:07:47;26.15;;;18.02;;
21860;SDS011;11095;48.066;8.540;2022-10-20T17:10:14;22.45;;;16.95;;
21860;SDS011;11095;48.066;8.540;2022-10-20T17:12:40;27.33;;;17.52;;
21860;SDS011;11095;48.066;8.540;2022-10-20T17:15:06;31.58;;;19.38;;
21860;SDS011;11095;48.066;8.540;2022-10-20T17:17:32;29.10;;;17.77;;
21860;SDS011;11095;48.066;8.540;2022-10-20T17:19:58;23.80;;;17.55;;
21860;SDS011;11095;48.066;8.540;2022-10-20T17:22:23;23.65;;;16.35;;
21860;SDS011;11095;48.066;8.540;2022-10-20T17:24:49;30.60;;;19.05;;
21860;SDS011;11095;48.066;8.540;2022-10-20T17:27:15;28.35;;;17.48;;